Sunday, October 22, 2017, 5:09 PM EDT
Back to Local

KBVY, Beverly Municipal Airport

Location: Danvers, MA, United States Lat: 42.583
Local Time: 5:09 PM EDT (21:09 GMT) Lon: -70.917
Time Zone: US/Eastern Elev: 108 ft

Show me the last for .
Show Decoded

2017-10-22 16:53 METAR KBVY 222053Z 02007KT 10SM BKN007 15/13 A3040 RMK AO2 SLP290 T01500128
                 53001 =
2017-10-22 15:53 METAR KBVY 221953Z 04006KT 10SM SCT010 16/13 A3039 RMK AO2 SLP287 T01610128 =
2017-10-22 14:53 METAR KBVY 221853Z 05008KT 10SM CLR 17/13 A3040 RMK AO2 SLP289 T01670133 =
2017-10-22 13:53 METAR KBVY 221753Z 03011KT 10SM FEW010 17/13 A3040 RMK AO2 SLP288 T01720133
                 10200 20100 58004 =
2017-10-22 12:53 METAR KBVY 221653Z 05008KT 10SM CLR 18/13 A3040 RMK AO2 SLP290 T01830133 =
2017-10-22 11:53 METAR KBVY 221553Z 06007KT 10SM BKN200 19/13 A3041 RMK AO2 SLP291 T01890133 =
2017-10-22 10:53 METAR KBVY 221453Z VRB05KT 10SM CLR 19/13 A3041 RMK AO2 SLP293 T01890133 51009 =
2017-10-22 09:53 METAR KBVY 221353Z 03006KT 10SM BKN200 16/12 A3041 RMK AO2 SLP293 T01610117 =
2017-10-22 08:53 METAR KBVY 221253Z 36003KT 10SM BKN150 12/09 A3040 RMK AO2 SLP291 T01220094 =
2017-10-22 07:53 METAR KBVY 221153Z 00000KT 10SM CLR 10/08 A3038 RMK AO2 SLP283 T01000083 10122
                 20083 53016 =
2017-10-22 06:53 METAR KBVY 221053Z 00000KT 10SM BKN150 09/07 A3036 RMK AO2 SLP278 T00940072 =
2017-10-22 05:53 METAR KBVY 220953Z AUTO 00000KT 10SM CLR 10/07 A3034 RMK AO2 SLP271 T01000072 =
2017-10-22 04:53 METAR KBVY 220853Z AUTO 00000KT 10SM CLR 11/08 A3033 RMK AO2 SLP268 T01060078
                 53006 =
2017-10-22 03:53 METAR KBVY 220753Z AUTO 00000KT 10SM CLR 11/07 A3033 RMK AO2 SLP265 T01060072 =
2017-10-22 02:53 METAR KBVY 220653Z AUTO 00000KT 10SM CLR 11/07 A3032 RMK AO2 SLP261 T01110072 =
2017-10-22 01:53 METAR KBVY 220553Z AUTO 00000KT 10SM CLR 12/08 A3032 RMK AO2 SLP261 T01170083
                 10189 20106 53003 =
2017-10-22 00:53 METAR KBVY 220453Z AUTO 00000KT 10SM CLR 12/08 A3031 RMK AO2 SLP259 T01220078
                 402560061 =
2017-10-21 23:53 METAR KBVY 220353Z AUTO 00000KT 10SM CLR 13/08 A3031 RMK AO2 SLP261 T01330083 =
2017-10-21 22:53 METAR KBVY 220253Z AUTO 32003KT 10SM CLR 13/08 A3031 RMK AO2 SLP259 T01330083
                 51009 =
2017-10-21 21:53 METAR KBVY 220153Z AUTO 00000KT 10SM CLR 15/08 A3030 RMK AO2 SLP256 T01500083 =
2017-10-21 20:53 METAR KBVY 220053Z 00000KT 10SM CLR 17/08 A3029 RMK AO2 SLP254 T01670078 =
2017-10-21 19:53 METAR KBVY 212353Z 27003KT 10SM CLR 19/07 A3028 RMK AO2 SLP250 T01890072 10256
                 20183 51016 =
2017-10-21 18:53 METAR KBVY 212253Z 26003KT 10SM CLR 20/06 A3027 RMK AO2 SLP247 T02000061 =
2017-10-21 17:53 METAR KBVY 212153Z 24003KT 10SM CLR 21/06 A3026 RMK AO2 SLP241 T02060056 =

Support USWX by starting your Amazon purchase here.